createdAt,value
2023-04-09T00:00:11.308Z,71.70
2023-04-09T00:01:11.266Z,75.80
2023-04-09T00:02:11.311Z,73.10
2023-04-09T00:03:11.293Z,74.30
2023-04-09T00:04:11.222Z,76.80
2023-04-09T00:05:11.227Z,77.70
2023-04-09T00:06:11.192Z,73.00
2023-04-09T00:07:11.209Z,75.60
2023-04-09T00:08:11.158Z,71.30
2023-04-09T00:09:11.191Z,75.80
2023-04-09T00:10:11.145Z,77.40
2023-04-09T00:11:11.184Z,81.60
2023-04-09T00:12:11.131Z,83.80
2023-04-09T00:13:11.142Z,81.00
2023-04-09T00:14:11.095Z,82.10
2023-04-09T00:15:14.998Z,76.10
2023-04-09T00:16:11.166Z,78.80
2023-04-09T00:17:11.100Z,81.40
2023-04-09T00:18:11.057Z,82.20
2023-04-09T00:19:11.037Z,80.30
2023-04-09T00:20:11.023Z,78.90
2023-04-09T00:21:11.025Z,79.30
2023-04-09T00:22:11.013Z,85.10
2023-04-09T00:23:12.965Z,89.80
2023-04-09T00:24:10.964Z,81.00
2023-04-09T00:25:10.988Z,82.80
2023-04-09T00:26:10.935Z,89.10
2023-04-09T00:27:10.925Z,87.40
2023-04-09T00:28:10.936Z,92.00
2023-04-09T00:29:10.916Z,88.40
2023-04-09T00:30:10.896Z,90.50
2023-04-09T00:31:10.908Z,83.70
2023-04-09T00:32:10.864Z,95.80
2023-04-09T00:33:10.849Z,89.10
2023-04-09T00:34:10.870Z,89.40
2023-04-09T00:35:10.819Z,92.20
2023-04-09T00:36:10.855Z,87.00
2023-04-09T00:37:10.827Z,88.10
2023-04-09T00:38:10.835Z,87.60
2023-04-09T00:39:10.788Z,86.40
2023-04-09T00:40:10.831Z,88.40
2023-04-09T00:41:10.772Z,86.30
2023-04-09T00:42:10.739Z,80.60
2023-04-09T00:43:10.824Z,79.00
2023-04-09T00:44:10.724Z,83.30
2023-04-09T00:45:10.712Z,82.70
2023-04-09T00:46:10.776Z,86.00
2023-04-09T00:47:10.696Z,87.10
2023-04-09T00:48:10.765Z,80.20
2023-04-09T00:49:10.760Z,88.30
2023-04-09T00:50:10.652Z,78.40
2023-04-09T00:51:10.671Z,85.10
2023-04-09T00:52:10.662Z,81.80
2023-04-09T00:53:10.617Z,85.50
2023-04-09T00:54:10.627Z,82.00
2023-04-09T00:55:10.596Z,85.70
2023-04-09T00:56:10.587Z,89.00
2023-04-09T00:57:10.574Z,87.50
2023-04-09T00:58:10.606Z,86.10
2023-04-09T00:59:10.539Z,88.60
2023-04-09T01:00:10.533Z,88.90
2023-04-09T01:01:10.538Z,88.00
2023-04-09T01:02:10.628Z,91.00
2023-04-09T01:03:17.093Z,86.10
2023-04-09T01:04:10.456Z,91.20
2023-04-09T01:05:10.456Z,89.60
2023-04-09T01:06:10.430Z,84.70
2023-04-09T01:07:10.412Z,92.90
2023-04-09T01:08:10.399Z,90.70
2023-04-09T01:09:10.420Z,91.10
2023-04-09T01:10:10.399Z,96.80
2023-04-09T01:11:10.374Z,96.00
2023-04-09T01:12:10.376Z,96.90
2023-04-09T01:13:10.364Z,100.50
2023-04-09T01:14:10.328Z,100.30
2023-04-09T01:15:10.332Z,93.90
2023-04-09T01:16:10.342Z,96.60
2023-04-09T01:17:10.291Z,101.60
2023-04-09T01:18:10.281Z,108.30
2023-04-09T01:19:10.297Z,105.00
2023-04-09T01:20:10.268Z,101.10
2023-04-09T01:21:10.253Z,110.50
2023-04-09T01:22:10.223Z,108.60
2023-04-09T01:23:10.221Z,112.20
2023-04-09T01:24:10.209Z,114.40
2023-04-09T01:25:10.215Z,113.50
2023-04-09T01:26:10.181Z,118.90
2023-04-09T01:27:10.188Z,112.30
2023-04-09T01:28:10.185Z,119.40
2023-04-09T01:29:10.144Z,119.00
2023-04-09T01:30:10.121Z,124.90
2023-04-09T01:31:10.164Z,124.60
2023-04-09T01:32:10.123Z,119.30
2023-04-09T01:33:10.141Z,127.10
2023-04-09T01:34:10.160Z,124.40
2023-04-09T01:35:10.072Z,128.80
2023-04-09T01:36:10.080Z,132.20
2023-04-09T01:37:10.051Z,130.10
2023-04-09T01:38:10.050Z,125.00
2023-04-09T01:39:10.034Z,131.30
2023-04-09T01:40:10.022Z,134.00
2023-04-09T01:41:09.981Z,130.40
2023-04-09T01:42:09.970Z,138.40
2023-04-09T01:43:09.956Z,141.00
2023-04-09T01:44:10.002Z,145.60
2023-04-09T01:45:09.962Z,153.50
2023-04-09T01:46:09.987Z,155.40
2023-04-09T01:47:09.908Z,158.30
2023-04-09T01:48:09.911Z,164.70
2023-04-09T01:49:09.911Z,169.00
2023-04-09T01:50:09.888Z,168.90
2023-04-09T01:51:09.894Z,166.30
2023-04-09T01:52:09.892Z,172.00
2023-04-09T01:53:09.866Z,176.00
2023-04-09T01:54:09.852Z,175.80
2023-04-09T01:55:09.829Z,184.10
2023-04-09T01:56:09.838Z,188.60
2023-04-09T01:57:09.788Z,193.80
2023-04-09T01:58:09.796Z,198.00
2023-04-09T01:59:09.785Z,188.50
2023-04-09T02:00:09.752Z,203.80
2023-04-09T02:01:09.750Z,212.20
2023-04-09T02:02:09.799Z,205.70
2023-04-09T02:03:09.829Z,211.40
2023-04-09T02:04:09.706Z,229.10
2023-04-09T02:05:09.686Z,233.30
2023-04-09T02:06:09.692Z,224.90
2023-04-09T02:07:09.722Z,241.40
2023-04-09T02:08:09.668Z,239.00
2023-04-09T02:09:09.639Z,242.70
2023-04-09T02:10:09.658Z,261.70
2023-04-09T02:11:09.602Z,267.60
2023-04-09T02:12:09.613Z,282.40
2023-04-09T02:13:09.592Z,278.70
2023-04-09T02:14:09.598Z,284.90
2023-04-09T02:15:09.572Z,293.70
2023-04-09T02:16:09.564Z,296.00
2023-04-09T02:17:09.554Z,295.70
2023-04-09T02:18:09.514Z,305.30
2023-04-09T02:19:09.512Z,293.10
2023-04-09T02:20:09.540Z,293.00
2023-04-09T02:21:09.499Z,303.90
2023-04-09T02:22:09.482Z,305.20
2023-04-09T02:23:09.459Z,314.70
2023-04-09T02:24:09.456Z,306.80
2023-04-09T02:25:09.450Z,307.10
2023-04-09T02:26:09.462Z,301.70
2023-04-09T02:27:09.433Z,294.70
2023-04-09T02:28:09.401Z,305.30
2023-04-09T02:29:09.393Z,314.40
2023-04-09T02:30:09.397Z,316.70
2023-04-09T02:31:09.386Z,305.20
2023-04-09T02:32:09.363Z,312.80
2023-04-09T02:33:09.333Z,323.50
2023-04-09T02:34:09.345Z,335.10
2023-04-09T02:35:09.352Z,314.60
2023-04-09T02:36:09.374Z,327.10
2023-04-09T02:37:09.318Z,312.60
2023-04-09T02:38:09.311Z,323.00
2023-04-09T02:39:09.273Z,317.70
2023-04-09T02:40:09.245Z,319.20
2023-04-09T02:41:09.265Z,311.40
2023-04-09T02:42:09.231Z,307.10
2023-04-09T02:43:09.215Z,310.90
2023-04-09T02:44:09.212Z,304.50
2023-04-09T02:45:09.215Z,314.60
2023-04-09T02:46:09.189Z,326.40
2023-04-09T02:47:09.226Z,334.00
2023-04-09T02:48:09.142Z,321.10
2023-04-09T02:49:09.152Z,328.40
2023-04-09T02:50:09.152Z,326.90
2023-04-09T02:51:09.112Z,322.90
2023-04-09T02:52:09.105Z,320.60
2023-04-09T02:53:09.104Z,322.30
2023-04-09T02:54:09.071Z,332.30
2023-04-09T02:55:09.060Z,334.90
2023-04-09T02:56:09.081Z,332.20
2023-04-09T02:57:09.076Z,334.70
2023-04-09T02:58:09.026Z,334.10
2023-04-09T02:59:09.014Z,319.80
2023-04-09T03:00:09.007Z,333.80
2023-04-09T03:01:09.119Z,347.70
2023-04-09T03:02:09.059Z,340.90
2023-04-09T03:03:09.106Z,348.30
2023-04-09T03:04:09.027Z,346.70
2023-04-09T03:05:08.938Z,349.20
2023-04-09T03:06:08.931Z,325.70
2023-04-09T03:07:08.909Z,321.90
2023-04-09T03:08:08.932Z,332.30
2023-04-09T03:09:08.882Z,317.70
2023-04-09T03:10:08.900Z,327.60
2023-04-09T03:11:08.866Z,358.30
2023-04-09T03:12:08.884Z,413.70
2023-04-09T03:13:08.872Z,392.80
2023-04-09T03:14:08.823Z,421.40
2023-04-09T03:15:08.821Z,431.90
2023-04-09T03:16:08.825Z,447.20
2023-04-09T03:17:08.806Z,445.90
2023-04-09T03:18:08.873Z,446.80
2023-04-09T03:19:08.795Z,467.50
2023-04-09T03:20:08.770Z,446.80
2023-04-09T03:21:08.745Z,447.30
2023-04-09T03:22:08.740Z,441.10
2023-04-09T03:23:08.709Z,465.30
2023-04-09T03:24:08.728Z,437.50
2023-04-09T03:25:08.717Z,422.60
2023-04-09T03:26:08.692Z,438.20
2023-04-09T03:27:08.676Z,424.00
2023-04-09T03:28:08.646Z,408.80
2023-04-09T03:29:08.644Z,434.50
2023-04-09T03:30:08.668Z,397.30
2023-04-09T03:31:08.701Z,394.60
2023-04-09T03:32:08.645Z,396.70
2023-04-09T03:33:08.612Z,396.40
2023-04-09T03:34:08.569Z,381.80
2023-04-09T03:35:08.580Z,364.40
2023-04-09T03:36:08.588Z,373.20
2023-04-09T03:37:08.563Z,360.70
2023-04-09T03:38:08.562Z,368.70
2023-04-09T03:39:08.512Z,332.90
2023-04-09T03:40:08.498Z,338.50
2023-04-09T03:41:08.553Z,332.30
2023-04-09T03:42:08.501Z,330.00
2023-04-09T03:43:08.461Z,330.70
2023-04-09T03:44:08.486Z,331.30
2023-04-09T03:45:08.436Z,347.90
2023-04-09T03:46:08.448Z,349.80
2023-04-09T03:47:08.459Z,332.20
2023-04-09T03:48:08.440Z,341.20
2023-04-09T03:49:08.429Z,359.40
2023-04-09T03:50:08.378Z,349.30
2023-04-09T03:51:08.377Z,329.10
2023-04-09T03:52:08.349Z,360.20
2023-04-09T03:53:08.369Z,362.60
2023-04-09T03:54:08.351Z,370.80
2023-04-09T03:55:08.334Z,342.70
2023-04-09T03:56:08.305Z,352.40
2023-04-09T03:57:08.299Z,348.70
2023-04-09T03:58:08.275Z,333.70
2023-04-09T03:59:08.279Z,342.80
2023-04-09T04:00:08.249Z,346.20
2023-04-09T04:01:08.251Z,332.70
2023-04-09T04:02:08.366Z,346.40
2023-04-09T04:03:08.341Z,337.70
2023-04-09T04:04:08.230Z,324.80
2023-04-09T04:05:08.209Z,328.10
2023-04-09T04:06:08.187Z,339.10
2023-04-09T04:07:08.163Z,329.30
2023-04-09T04:08:08.159Z,308.60
2023-04-09T04:09:08.165Z,305.40
2023-04-09T04:10:08.123Z,292.00
2023-04-09T04:11:08.133Z,307.50
2023-04-09T04:12:08.101Z,296.70
2023-04-09T04:13:08.127Z,303.80
2023-04-09T04:14:08.084Z,308.80
2023-04-09T04:15:08.059Z,282.70
2023-04-09T04:16:08.089Z,302.90
2023-04-09T04:17:08.046Z,291.70
2023-04-09T04:18:08.034Z,286.10
2023-04-09T04:19:08.012Z,286.20
2023-04-09T04:20:07.994Z,283.30
2023-04-09T04:21:07.991Z,287.50
2023-04-09T04:22:08.015Z,280.20
2023-04-09T04:23:07.950Z,272.80
2023-04-09T04:24:07.955Z,276.00
2023-04-09T04:25:07.981Z,267.70
2023-04-09T04:26:07.933Z,277.30
2023-04-09T04:27:07.892Z,267.80
2023-04-09T04:28:07.920Z,270.50
2023-04-09T04:29:07.886Z,262.00
2023-04-09T04:30:07.872Z,278.60
2023-04-09T04:31:07.872Z,268.20
2023-04-09T04:32:07.837Z,272.70
2023-04-09T04:33:07.830Z,276.30
2023-04-09T04:34:07.847Z,279.30
2023-04-09T04:35:07.835Z,266.10
2023-04-09T04:36:07.808Z,257.10
2023-04-09T04:37:07.776Z,272.10
2023-04-09T04:38:07.803Z,270.40
2023-04-09T04:39:07.741Z,267.80
2023-04-09T04:40:07.786Z,261.40
2023-04-09T04:41:07.722Z,277.50
2023-04-09T04:42:07.723Z,278.30
2023-04-09T04:43:07.710Z,286.30
2023-04-09T04:44:07.749Z,283.20
2023-04-09T04:45:07.717Z,280.50
2023-04-09T04:46:07.742Z,283.30
2023-04-09T04:47:07.748Z,281.20
2023-04-09T04:48:07.701Z,283.00
2023-04-09T04:49:07.635Z,296.30
2023-04-09T04:50:07.615Z,291.50
2023-04-09T04:51:07.630Z,334.00
2023-04-09T04:52:07.597Z,326.10
2023-04-09T04:53:07.584Z,329.30
2023-04-09T04:54:07.574Z,369.80
2023-04-09T04:55:07.582Z,346.80
2023-04-09T04:56:07.578Z,372.90
2023-04-09T04:57:07.528Z,353.60
2023-04-09T04:58:07.546Z,352.20
2023-04-09T04:59:07.539Z,349.40
2023-04-09T05:00:07.486Z,336.20
2023-04-09T05:01:07.520Z,351.50
2023-04-09T05:02:07.523Z,350.70
2023-04-09T05:03:07.512Z,354.20
2023-04-09T05:04:07.439Z,348.80
2023-04-09T05:05:07.422Z,340.40
2023-04-09T05:06:07.421Z,327.10
2023-04-09T05:07:07.392Z,321.10
2023-04-09T05:08:07.538Z,330.60
2023-04-09T05:09:07.404Z,313.40
2023-04-09T05:10:07.393Z,314.50
2023-04-09T05:11:07.358Z,304.80
2023-04-09T05:12:07.336Z,281.10
2023-04-09T05:13:07.341Z,283.90
2023-04-09T05:14:07.394Z,264.30
2023-04-09T05:15:07.311Z,277.90
2023-04-09T05:16:07.279Z,263.70
2023-04-09T05:17:07.279Z,268.70
2023-04-09T05:18:07.303Z,267.20
2023-04-09T05:19:07.313Z,259.70
2023-04-09T05:20:07.257Z,246.70
2023-04-09T05:21:07.222Z,263.00
2023-04-09T05:22:07.210Z,260.30
2023-04-09T05:23:07.197Z,253.20
2023-04-09T05:24:07.210Z,222.60
2023-04-09T05:25:07.192Z,221.80
2023-04-09T05:26:07.215Z,221.20
2023-04-09T05:27:07.167Z,214.40
2023-04-09T05:28:07.150Z,207.00
2023-04-09T05:29:07.123Z,193.90
2023-04-09T05:30:07.114Z,180.90
2023-04-09T05:31:07.129Z,183.70
2023-04-09T05:32:07.114Z,177.70
2023-04-09T05:33:07.069Z,176.10
2023-04-09T05:34:07.070Z,172.90
2023-04-09T05:35:07.062Z,167.80
2023-04-09T05:36:07.092Z,164.50
2023-04-09T05:37:07.045Z,152.80
2023-04-09T05:38:07.021Z,153.70
2023-04-09T05:39:07.010Z,141.60
2023-04-09T05:40:07.029Z,146.40
2023-04-09T05:41:06.987Z,146.90
2023-04-09T05:42:06.991Z,139.10
2023-04-09T05:43:06.964Z,136.40
2023-04-09T05:44:06.973Z,136.50
2023-04-09T05:45:06.973Z,140.00
2023-04-09T05:46:06.985Z,136.90
2023-04-09T05:47:06.892Z,130.50
2023-04-09T05:48:06.932Z,138.60
2023-04-09T05:49:06.892Z,133.00
2023-04-09T05:50:06.882Z,138.80
2023-04-09T05:51:06.861Z,144.30
2023-04-09T05:52:06.829Z,132.90
2023-04-09T05:53:06.823Z,113.40
2023-04-09T05:54:06.856Z,130.10
2023-04-09T05:55:06.832Z,125.20
2023-04-09T05:56:06.790Z,108.30
2023-04-09T05:57:06.781Z,113.10
2023-04-09T05:58:06.771Z,105.00
2023-04-09T05:59:06.757Z,96.50
2023-04-09T06:00:06.768Z,107.30
2023-04-09T06:01:06.753Z,98.80
2023-04-09T06:02:06.820Z,87.40
2023-04-09T06:03:06.776Z,87.30
2023-04-09T06:04:06.786Z,88.30
2023-04-09T06:05:06.674Z,86.30
2023-04-09T06:06:06.702Z,85.60
2023-04-09T06:07:06.654Z,86.40
2023-04-09T06:08:06.632Z,86.30
2023-04-09T06:09:06.646Z,79.20
2023-04-09T06:10:06.627Z,76.70
2023-04-09T06:11:06.608Z,81.40
2023-04-09T06:12:06.598Z,95.70
2023-04-09T06:13:06.575Z,81.40
2023-04-09T06:14:06.563Z,76.60
2023-04-09T06:15:06.563Z,73.60
2023-04-09T06:16:06.557Z,73.50
2023-04-09T06:17:06.543Z,74.70
2023-04-09T06:18:06.668Z,64.30
2023-04-09T06:19:06.505Z,66.20
2023-04-09T06:20:06.512Z,66.60
2023-04-09T06:21:06.534Z,63.60
2023-04-09T06:22:06.478Z,62.50
2023-04-09T06:23:06.454Z,65.70
2023-04-09T06:24:06.472Z,61.00
2023-04-09T06:25:06.405Z,59.30
2023-04-09T06:26:06.441Z,58.00
2023-04-09T06:27:06.575Z,54.70
2023-04-09T06:28:06.384Z,56.60
2023-04-09T06:29:06.402Z,52.40
2023-04-09T06:30:06.397Z,51.60
2023-04-09T06:31:06.411Z,49.50
2023-04-09T06:32:06.353Z,49.10
2023-04-09T06:33:06.348Z,49.00
2023-04-09T06:34:06.298Z,49.20
2023-04-09T06:35:06.309Z,47.40
2023-04-09T06:36:06.333Z,49.40
2023-04-09T06:37:06.301Z,49.00
2023-04-09T06:38:06.257Z,46.30
2023-04-09T06:39:06.258Z,45.10
2023-04-09T06:40:06.248Z,48.20
2023-04-09T06:41:06.211Z,43.70
2023-04-09T06:42:06.236Z,45.30
2023-04-09T06:43:06.275Z,45.70
2023-04-09T06:44:06.183Z,44.00
2023-04-09T06:45:06.159Z,44.40
2023-04-09T06:46:06.188Z,43.80
2023-04-09T06:47:06.200Z,45.70
2023-04-09T06:48:06.127Z,42.00
2023-04-09T06:49:06.122Z,41.80
2023-04-09T06:50:06.130Z,41.30
2023-04-09T06:51:06.099Z,40.80
2023-04-09T06:52:06.098Z,39.80
2023-04-09T06:53:06.084Z,40.10
2023-04-09T06:54:06.074Z,38.40
2023-04-09T06:55:06.125Z,41.00
2023-04-09T06:56:06.204Z,38.90
2023-04-09T06:57:06.024Z,37.50
2023-04-09T06:58:06.033Z,36.50
2023-04-09T06:59:05.999Z,37.00
2023-04-09T07:00:05.982Z,35.60
2023-04-09T07:01:05.967Z,33.40
2023-04-09T07:02:06.137Z,35.20
2023-04-09T07:03:06.129Z,33.90
2023-04-09T07:04:06.016Z,37.10
2023-04-09T07:05:05.962Z,32.80
2023-04-09T07:06:05.930Z,33.80
2023-04-09T07:07:05.873Z,36.40
2023-04-09T07:08:05.868Z,34.50
2023-04-09T07:09:05.848Z,37.50
2023-04-09T07:10:05.857Z,36.80
2023-04-09T07:11:05.853Z,37.90
2023-04-09T07:12:05.822Z,38.80
2023-04-09T07:13:05.831Z,37.30
2023-04-09T07:14:05.808Z,36.80
2023-04-09T07:15:05.826Z,36.20
2023-04-09T07:16:05.826Z,33.30
2023-04-09T07:17:05.750Z,32.00
2023-04-09T07:18:05.834Z,34.70
2023-04-09T07:19:05.739Z,45.50
2023-04-09T07:20:05.738Z,34.60
2023-04-09T07:21:05.725Z,35.70
2023-04-09T07:22:05.690Z,32.00
2023-04-09T07:23:05.688Z,32.70
2023-04-09T07:24:05.716Z,31.90
2023-04-09T07:25:05.695Z,30.20
2023-04-09T07:26:05.711Z,29.10
2023-04-09T07:27:05.746Z,29.80
2023-04-09T07:28:05.635Z,30.20
2023-04-09T07:29:05.627Z,29.30
2023-04-09T07:30:05.598Z,28.20
2023-04-09T07:31:05.603Z,28.00
2023-04-09T07:32:05.649Z,29.00
2023-04-09T07:33:05.591Z,26.20
2023-04-09T07:34:05.629Z,25.90
2023-04-09T07:35:05.519Z,23.80
2023-04-09T07:36:05.540Z,25.20
2023-04-09T07:37:05.541Z,24.90
2023-04-09T07:38:05.516Z,24.10
2023-04-09T07:39:05.497Z,24.50
2023-04-09T07:40:05.454Z,23.40
2023-04-09T07:41:05.753Z,24.60
2023-04-09T07:42:05.435Z,25.00
2023-04-09T07:43:05.439Z,24.70
2023-04-09T07:44:05.424Z,24.20
2023-04-09T07:45:05.404Z,24.40
2023-04-09T07:46:05.395Z,25.70
2023-04-09T07:47:05.462Z,25.40
2023-04-09T07:48:05.422Z,25.00
2023-04-09T07:49:05.362Z,26.10
2023-04-09T07:50:05.353Z,25.50
2023-04-09T07:51:05.319Z,26.00
2023-04-09T07:52:05.329Z,27.80
2023-04-09T07:53:05.300Z,25.50
2023-04-09T07:54:05.283Z,26.50
2023-04-09T07:55:05.284Z,25.00
2023-04-09T07:56:05.278Z,24.20
2023-04-09T07:57:05.247Z,24.30
2023-04-09T07:58:05.269Z,25.20
2023-04-09T07:59:05.226Z,23.10
2023-04-09T08:00:05.226Z,23.20
2023-04-09T08:01:05.223Z,24.60
2023-04-09T08:02:05.242Z,22.10
2023-04-09T08:03:05.459Z,22.50
2023-04-09T08:04:05.390Z,23.80
2023-04-09T08:05:05.216Z,24.60
2023-04-09T08:06:05.140Z,23.80
2023-04-09T08:07:05.146Z,25.00
2023-04-09T08:08:05.120Z,23.70
2023-04-09T08:09:05.115Z,25.00
2023-04-09T08:10:05.100Z,25.40
2023-04-09T08:11:05.071Z,24.60
2023-04-09T08:12:05.060Z,24.60
2023-04-09T08:13:05.079Z,24.30
2023-04-09T08:14:05.047Z,22.40
2023-04-09T08:15:05.044Z,21.40
2023-04-09T08:16:05.025Z,21.70
2023-04-09T08:17:05.006Z,22.30
2023-04-09T08:18:05.006Z,22.40
2023-04-09T08:19:04.998Z,22.00
2023-04-09T08:20:04.977Z,21.70
2023-04-09T08:21:04.945Z,21.80
2023-04-09T08:22:04.937Z,22.00
2023-04-09T08:23:04.934Z,21.90
2023-04-09T08:24:04.938Z,21.50
2023-04-09T08:25:04.958Z,21.70
2023-04-09T08:26:04.900Z,22.40
2023-04-09T08:27:04.881Z,22.40
2023-04-09T08:28:04.884Z,21.60
2023-04-09T08:29:04.857Z,21.70
2023-04-09T08:30:04.860Z,21.20
2023-04-09T08:31:04.824Z,21.90
2023-04-09T08:32:04.843Z,23.90
2023-04-09T08:33:04.838Z,23.30
2023-04-09T08:34:04.792Z,23.80
2023-04-09T08:35:04.938Z,24.80
2023-04-09T08:36:04.842Z,24.90
2023-04-09T08:37:04.781Z,24.30
2023-04-09T08:38:04.754Z,24.40
2023-04-09T08:39:04.768Z,25.20
2023-04-09T08:40:04.797Z,25.10
2023-04-09T08:41:04.700Z,25.30
2023-04-09T08:42:04.697Z,25.50
2023-04-09T08:43:04.691Z,26.30
2023-04-09T08:44:04.737Z,26.00
2023-04-09T08:45:04.664Z,23.20
2023-04-09T08:46:04.807Z,23.00
2023-04-09T08:47:04.641Z,23.70
2023-04-09T08:48:04.701Z,21.50
2023-04-09T08:49:04.599Z,21.10
2023-04-09T08:50:04.600Z,21.10
2023-04-09T08:51:04.573Z,21.00
2023-04-09T08:52:04.737Z,21.20
2023-04-09T08:53:04.604Z,20.50
2023-04-09T08:54:05.149Z,20.70
2023-04-09T08:55:04.601Z,20.70
2023-04-09T08:56:04.504Z,20.30
2023-04-09T08:57:04.548Z,20.70
2023-04-09T08:58:04.489Z,19.60
2023-04-09T08:59:04.765Z,19.20
2023-04-09T09:00:04.465Z,19.10
2023-04-09T09:01:04.463Z,19.70
2023-04-09T09:02:04.548Z,16.90
2023-04-09T09:03:04.827Z,17.50
2023-04-09T09:04:04.642Z,17.80
2023-04-09T09:05:04.462Z,18.40
2023-04-09T09:06:04.395Z,18.40
2023-04-09T09:07:04.394Z,19.50
2023-04-09T09:08:04.365Z,18.90
2023-04-09T09:09:04.352Z,19.20
2023-04-09T09:10:04.345Z,19.50
2023-04-09T09:11:04.361Z,18.10
2023-04-09T09:12:04.308Z,19.10
2023-04-09T09:13:04.318Z,19.50
2023-04-09T09:14:04.336Z,17.40
2023-04-09T09:15:04.289Z,18.40
2023-04-09T09:16:04.271Z,18.10
2023-04-09T09:17:04.307Z,18.20
2023-04-09T09:18:04.328Z,19.50
2023-04-09T09:19:04.227Z,19.80
2023-04-09T09:20:04.234Z,18.30
2023-04-09T09:21:05.174Z,19.60
2023-04-09T09:22:04.225Z,18.00
2023-04-09T09:23:04.206Z,17.20
2023-04-09T09:24:04.166Z,18.70
2023-04-09T09:25:04.164Z,18.40
2023-04-09T09:26:04.143Z,17.50
2023-04-09T09:27:04.130Z,17.50
2023-04-09T09:28:04.123Z,17.40
2023-04-09T09:29:04.125Z,17.00
2023-04-09T09:30:04.132Z,17.50
2023-04-09T09:31:04.151Z,16.90
2023-04-09T09:32:04.083Z,19.00
2023-04-09T09:33:04.052Z,16.60
2023-04-09T09:34:04.041Z,17.60
2023-04-09T09:35:04.060Z,17.70
2023-04-09T09:36:04.098Z,17.80
2023-04-09T09:37:04.023Z,18.20
2023-04-09T09:38:04.055Z,17.10
2023-04-09T09:39:03.981Z,18.20
2023-04-09T09:40:03.990Z,17.60
2023-04-09T09:41:03.973Z,17.70
2023-04-09T09:42:03.938Z,17.60
2023-04-09T09:43:03.961Z,18.00
2023-04-09T09:44:03.923Z,17.50
2023-04-09T09:45:03.938Z,16.60
2023-04-09T09:46:03.958Z,15.30
2023-04-09T09:47:03.887Z,15.70
2023-04-09T09:48:03.944Z,15.20
2023-04-09T09:49:03.863Z,14.90
2023-04-09T09:50:03.876Z,14.60
2023-04-09T09:51:03.883Z,14.40
2023-04-09T09:52:03.846Z,14.40
2023-04-09T09:53:03.842Z,15.00
2023-04-09T09:54:03.811Z,14.40
2023-04-09T09:55:03.803Z,14.50
2023-04-09T09:56:03.827Z,15.20
2023-04-09T09:57:03.769Z,14.00
2023-04-09T09:58:03.766Z,15.20
2023-04-09T09:59:03.812Z,12.90
2023-04-09T10:00:03.743Z,14.50
2023-04-09T10:01:03.757Z,14.00
2023-04-09T10:02:03.818Z,15.70
2023-04-09T10:03:03.843Z,14.00
2023-04-09T10:04:03.715Z,14.90
2023-04-09T10:05:03.695Z,13.90
2023-04-09T10:06:03.715Z,13.40
2023-04-09T10:07:03.710Z,14.90
2023-04-09T10:08:03.633Z,15.20
2023-04-09T10:09:03.644Z,13.70
2023-04-09T10:10:03.663Z,12.70
2023-04-09T10:11:03.601Z,12.40
2023-04-09T10:12:03.664Z,12.40
2023-04-09T10:13:03.645Z,12.90
2023-04-09T10:14:03.593Z,13.90
2023-04-09T10:15:03.567Z,14.20
2023-04-09T10:16:03.585Z,14.50
2023-04-09T10:17:03.571Z,13.50
2023-04-09T10:18:03.585Z,13.90
2023-04-09T10:19:03.536Z,14.30
2023-04-09T10:20:03.581Z,12.90
2023-04-09T10:21:03.476Z,12.90
2023-04-09T10:22:03.484Z,13.00
2023-04-09T10:23:03.465Z,11.90
2023-04-09T10:24:03.469Z,11.00
2023-04-09T10:25:03.445Z,11.80
2023-04-09T10:26:03.418Z,11.30
2023-04-09T10:27:03.414Z,11.70
2023-04-09T10:28:03.386Z,11.30
2023-04-09T10:29:03.404Z,11.20
2023-04-09T10:30:03.388Z,12.00
2023-04-09T10:31:03.433Z,11.10
2023-04-09T10:32:03.370Z,11.10
2023-04-09T10:33:03.389Z,11.00
2023-04-09T10:34:03.360Z,9.70
2023-04-09T10:35:03.361Z,9.30
2023-04-09T10:36:03.358Z,8.90
2023-04-09T10:37:03.295Z,10.40
2023-04-09T10:38:03.293Z,9.40
2023-04-09T10:39:03.299Z,9.90
2023-04-09T10:40:03.275Z,9.80
2023-04-09T10:41:03.243Z,11.30
2023-04-09T10:42:03.274Z,10.00
2023-04-09T10:43:03.259Z,9.10
2023-04-09T10:44:03.233Z,8.80
2023-04-09T10:45:03.215Z,7.80
2023-04-09T10:46:03.263Z,8.10
2023-04-09T10:47:03.176Z,8.10
2023-04-09T10:48:03.240Z,8.30
2023-04-09T10:49:03.139Z,9.20
2023-04-09T10:50:03.147Z,8.60
2023-04-09T10:51:03.126Z,8.40
2023-04-09T10:52:03.134Z,7.60
2023-04-09T10:53:03.152Z,7.80
2023-04-09T10:54:03.110Z,8.60
2023-04-09T10:55:03.074Z,7.60
2023-04-09T10:56:03.044Z,8.20
2023-04-09T10:57:03.084Z,8.10
2023-04-09T10:58:03.028Z,8.00
2023-04-09T10:59:03.040Z,8.20
2023-04-09T11:00:03.041Z,8.50
2023-04-09T11:01:02.995Z,8.60
2023-04-09T11:02:03.129Z,8.50
2023-04-09T11:03:03.117Z,8.60
2023-04-09T11:04:03.001Z,7.90
2023-04-09T11:05:03.041Z,8.30
2023-04-09T11:06:02.966Z,8.10
2023-04-09T11:07:02.945Z,7.90
2023-04-09T11:08:02.904Z,8.10
2023-04-09T11:09:03.204Z,7.70
2023-04-09T11:10:02.889Z,8.00
2023-04-09T11:11:02.873Z,8.00
2023-04-09T11:12:02.867Z,7.30
2023-04-09T14:39:49.182Z,4.80
2023-04-09T14:40:50.167Z,5.10
2023-04-09T14:41:50.144Z,4.80
2023-04-09T14:42:50.188Z,5.60
2023-04-09T14:43:50.116Z,5.00
2023-04-09T14:44:50.127Z,5.30
2023-04-09T14:45:50.106Z,5.40
2023-04-09T14:46:50.139Z,5.20
2023-04-09T14:47:50.090Z,5.10
2023-04-09T14:48:50.085Z,5.00
2023-04-09T14:49:50.059Z,5.10
2023-04-09T14:50:50.044Z,5.30
2023-04-09T14:51:50.025Z,5.10
2023-04-09T14:52:49.988Z,5.30
2023-04-09T14:53:49.992Z,5.70
2023-04-09T14:54:49.963Z,5.10
2023-04-09T14:55:50.146Z,5.20
2023-04-09T14:56:49.972Z,5.00
2023-04-09T14:57:49.945Z,5.60
2023-04-09T14:58:49.964Z,5.40
2023-04-09T14:59:49.912Z,5.40
2023-04-09T15:00:49.895Z,5.40
2023-04-09T15:01:49.961Z,4.90
2023-04-09T15:02:50.088Z,4.90
2023-04-09T15:03:50.041Z,4.80
2023-04-09T15:04:50.032Z,5.10
2023-04-09T15:05:50.258Z,4.90
2023-04-09T15:06:49.832Z,5.20
2023-04-09T15:07:49.847Z,5.20
2023-04-09T15:08:49.805Z,4.80
2023-04-09T15:09:49.780Z,5.40
2023-04-09T15:10:50.412Z,4.60
2023-04-09T15:11:49.751Z,5.20
2023-04-09T15:12:49.761Z,4.60
2023-04-09T15:13:49.836Z,4.60
2023-04-09T15:14:49.835Z,4.70
2023-04-09T15:15:49.726Z,5.20
2023-04-09T15:16:49.750Z,4.80
2023-04-09T15:17:49.857Z,4.70
2023-04-09T15:18:49.696Z,5.00
2023-04-09T15:19:49.668Z,5.00
2023-04-09T15:20:49.632Z,4.40
2023-04-09T15:21:49.654Z,4.80
2023-04-09T15:22:49.652Z,5.10
2023-04-09T15:23:49.606Z,4.50
2023-04-09T15:24:49.600Z,4.60
2023-04-09T15:25:49.586Z,4.60
2023-04-09T15:26:49.567Z,5.10
2023-04-09T15:27:49.657Z,5.10
2023-04-09T15:28:49.549Z,4.70
2023-04-09T15:29:49.540Z,4.80
2023-04-09T15:30:49.536Z,4.40
2023-04-09T15:31:49.580Z,4.90
2023-04-09T15:32:49.509Z,4.90
2023-04-09T15:33:49.653Z,4.90
2023-04-09T15:34:49.502Z,4.90
2023-04-09T15:35:49.513Z,5.60
2023-04-09T15:36:49.583Z,5.20
2023-04-09T15:37:49.425Z,4.90
2023-04-09T15:38:49.601Z,5.40
2023-04-09T15:39:49.616Z,4.50
2023-04-09T15:40:49.381Z,4.50
2023-04-09T15:41:49.435Z,4.50
2023-04-09T15:42:49.372Z,5.00
2023-04-09T15:43:49.925Z,4.80
2023-04-09T15:44:49.369Z,5.10
2023-04-09T15:45:49.374Z,4.80
2023-04-09T15:46:49.292Z,4.80
2023-04-09T15:47:49.313Z,5.10
2023-04-09T15:48:49.478Z,4.90
2023-04-09T15:49:49.277Z,4.80
2023-04-09T15:50:49.244Z,5.00
2023-04-09T15:51:49.240Z,4.00
2023-04-09T15:52:49.449Z,4.80
2023-04-09T15:53:49.209Z,4.80
2023-04-09T15:54:49.215Z,5.20
2023-04-09T15:55:49.204Z,5.10
2023-04-09T15:56:49.223Z,4.40
2023-04-09T15:57:49.166Z,4.50
2023-04-09T15:58:49.157Z,5.60
2023-04-09T15:59:49.137Z,5.60
2023-04-09T16:00:49.136Z,4.30
2023-04-09T16:01:49.222Z,4.90
2023-04-09T16:02:49.101Z,5.20
2023-04-09T16:03:49.119Z,4.40
2023-04-09T16:04:49.102Z,4.40
2023-04-09T16:05:49.083Z,4.40
2023-04-09T16:06:49.061Z,5.00
2023-04-09T16:07:49.029Z,4.70
2023-04-09T16:08:49.051Z,4.80
2023-04-09T16:09:49.000Z,4.70
2023-04-09T16:10:48.996Z,4.60
2023-04-09T16:11:48.991Z,5.00
2023-04-09T16:12:48.963Z,4.90
2023-04-09T16:13:48.983Z,4.70